sensor_id;sensor_type;location;lat;lon;timestamp;pressure;altitude;pressure_sealevel;temperature;humidity
77321;BME280;66382;52.252;8.780;2023-10-09T00:01:07;101002.78;;;14.33;65.32
77321;BME280;66382;52.252;8.780;2023-10-09T00:03:33;100986.59;;;14.33;65.44
77321;BME280;66382;52.252;8.780;2023-10-09T00:05:59;100973.94;;;14.34;65.07
77321;BME280;66382;52.252;8.780;2023-10-09T00:08:26;100967.72;;;14.33;65.73
77321;BME280;66382;52.252;8.780;2023-10-09T00:10:51;100960.22;;;14.29;65.24
77321;BME280;66382;52.252;8.780;2023-10-09T00:13:17;100964.22;;;14.33;65.20
77321;BME280;66382;52.252;8.780;2023-10-09T00:15:43;100966.91;;;14.33;65.08
77321;BME280;66382;52.252;8.780;2023-10-09T00:18:08;100974.34;;;14.31;65.34
77321;BME280;66382;52.252;8.780;2023-10-09T00:20:36;100959.84;;;14.32;65.40
77321;BME280;66382;52.252;8.780;2023-10-09T00:23:01;100957.16;;;14.32;65.61
77321;BME280;66382;52.252;8.780;2023-10-09T00:25:28;100953.41;;;14.33;65.85
77321;BME280;66382;52.252;8.780;2023-10-09T00:27:54;100948.84;;;14.33;65.94
77321;BME280;66382;52.252;8.780;2023-10-09T00:30:20;100947.84;;;14.34;65.64
77321;BME280;66382;52.252;8.780;2023-10-09T00:32:47;100960.28;;;14.35;65.98
77321;BME280;66382;52.252;8.780;2023-10-09T00:35:13;100937.22;;;14.33;66.00
77321;BME280;66382;52.252;8.780;2023-10-09T00:37:38;100930.59;;;14.35;65.98
77321;BME280;66382;52.252;8.780;2023-10-09T00:40:05;100918.34;;;14.33;65.93
77321;BME280;66382;52.252;8.780;2023-10-09T00:42:32;100905.66;;;14.27;65.70
77321;BME280;66382;52.252;8.780;2023-10-09T00:44:58;100901.72;;;14.23;65.84
77321;BME280;66382;52.252;8.780;2023-10-09T00:47:24;100896.13;;;14.17;66.00
77321;BME280;66382;52.252;8.780;2023-10-09T00:49:51;100900.03;;;14.15;66.02
77321;BME280;66382;52.252;8.780;2023-10-09T00:52:17;100909.38;;;14.12;66.01
77321;BME280;66382;52.252;8.780;2023-10-09T00:54:44;100902.94;;;14.13;66.51
77321;BME280;66382;52.252;8.780;2023-10-09T00:57:10;100916.00;;;14.16;66.54
77321;BME280;66382;52.252;8.780;2023-10-09T00:59:37;100932.00;;;14.18;66.09
77321;BME280;66382;52.252;8.780;2023-10-09T01:02:03;100917.28;;;14.20;66.21
77321;BME280;66382;52.252;8.780;2023-10-09T01:04:28;100921.44;;;14.23;65.94
77321;BME280;66382;52.252;8.780;2023-10-09T01:06:54;100908.13;;;14.22;66.51
77321;BME280;66382;52.252;8.780;2023-10-09T01:09:20;100920.81;;;14.28;66.25
77321;BME280;66382;52.252;8.780;2023-10-09T01:11:46;100932.25;;;14.30;66.46
77321;BME280;66382;52.252;8.780;2023-10-09T01:14:12;100936.41;;;14.32;66.48
77321;BME280;66382;52.252;8.780;2023-10-09T01:16:39;100952.59;;;14.32;66.46
77321;BME280;66382;52.252;8.780;2023-10-09T01:19:05;100945.75;;;14.36;66.55
77321;BME280;66382;52.252;8.780;2023-10-09T01:21:30;100931.22;;;14.37;66.67
77321;BME280;66382;52.252;8.780;2023-10-09T01:23:58;100930.81;;;14.40;66.66
77321;BME280;66382;52.252;8.780;2023-10-09T01:26:23;100922.72;;;14.40;66.31
77321;BME280;66382;52.252;8.780;2023-10-09T01:28:49;100916.31;;;14.41;66.57
77321;BME280;66382;52.252;8.780;2023-10-09T01:31:15;100917.53;;;14.39;66.67
77321;BME280;66382;52.252;8.780;2023-10-09T01:33:40;100916.50;;;14.40;66.43
77321;BME280;66382;52.252;8.780;2023-10-09T01:36:06;100907.38;;;14.41;66.24
77321;BME280;66382;52.252;8.780;2023-10-09T01:38:32;100894.09;;;14.39;66.36
77321;BME280;66382;52.252;8.780;2023-10-09T01:40:59;100885.16;;;14.39;66.65
77321;BME280;66382;52.252;8.780;2023-10-09T01:43:25;100895.34;;;14.37;66.24
77321;BME280;66382;52.252;8.780;2023-10-09T01:45:51;100872.72;;;14.38;66.38
77321;BME280;66382;52.252;8.780;2023-10-09T01:48:16;100871.88;;;14.37;66.36
77321;BME280;66382;52.252;8.780;2023-10-09T01:50:42;100861.28;;;14.36;66.58
77321;BME280;66382;52.252;8.780;2023-10-09T01:53:08;100862.13;;;14.36;67.40
77321;BME280;66382;52.252;8.780;2023-10-09T01:55:34;100846.97;;;14.35;67.06
77321;BME280;66382;52.252;8.780;2023-10-09T01:58:01;100861.28;;;14.36;67.24
77321;BME280;66382;52.252;8.780;2023-10-09T02:00:26;100864.81;;;14.36;67.23
77321;BME280;66382;52.252;8.780;2023-10-09T02:02:52;100868.97;;;14.39;67.53
77321;BME280;66382;52.252;8.780;2023-10-09T02:05:18;100867.13;;;14.39;67.36
77321;BME280;66382;52.252;8.780;2023-10-09T02:07:43;100854.47;;;14.40;66.81
77321;BME280;66382;52.252;8.780;2023-10-09T02:10:10;100851.97;;;14.38;67.49
77321;BME280;66382;52.252;8.780;2023-10-09T02:12:36;100856.53;;;14.38;67.24
77321;BME280;66382;52.252;8.780;2023-10-09T02:15:04;100847.81;;;14.36;67.21
77321;BME280;66382;52.252;8.780;2023-10-09T02:17:30;100840.13;;;14.33;67.50
77321;BME280;66382;52.252;8.780;2023-10-09T02:19:56;100837.63;;;14.31;67.08
77321;BME280;66382;52.252;8.780;2023-10-09T02:22:22;100821.88;;;14.28;67.23
77321;BME280;66382;52.252;8.780;2023-10-09T02:24:47;100816.06;;;14.25;67.63
77321;BME280;66382;52.252;8.780;2023-10-09T02:27:13;100820.81;;;14.23;67.79
77321;BME280;66382;52.252;8.780;2023-10-09T02:29:39;100825.59;;;14.20;67.89
77321;BME280;66382;52.252;8.780;2023-10-09T02:32:06;100814.81;;;14.20;67.27
77321;BME280;66382;52.252;8.780;2023-10-09T02:34:32;100813.16;;;14.19;67.24
77321;BME280;66382;52.252;8.780;2023-10-09T02:36:57;100823.31;;;14.17;67.51
77321;BME280;66382;52.252;8.780;2023-10-09T02:39:23;100817.91;;;14.17;67.74
77321;BME280;66382;52.252;8.780;2023-10-09T02:41:49;100817.09;;;14.17;67.80
77321;BME280;66382;52.252;8.780;2023-10-09T02:44:15;100817.91;;;14.17;67.47
77321;BME280;66382;52.252;8.780;2023-10-09T02:46:41;100811.91;;;14.15;67.78
77321;BME280;66382;52.252;8.780;2023-10-09T02:49:08;100814.16;;;14.18;67.85
77321;BME280;66382;52.252;8.780;2023-10-09T02:51:34;100817.69;;;14.19;67.89
77321;BME280;66382;52.252;8.780;2023-10-09T02:54:01;100812.94;;;14.21;67.62
77321;BME280;66382;52.252;8.780;2023-10-09T02:56:27;100816.03;;;14.18;68.17
77321;BME280;66382;52.252;8.780;2023-10-09T02:58:53;100815.63;;;14.21;68.11
77321;BME280;66382;52.252;8.780;2023-10-09T03:01:18;100818.13;;;14.23;67.99
77321;BME280;66382;52.252;8.780;2023-10-09T03:03:45;100809.81;;;14.24;68.10
77321;BME280;66382;52.252;8.780;2023-10-09T03:06:12;100804.22;;;14.26;67.90
77321;BME280;66382;52.252;8.780;2023-10-09T03:08:38;100792.41;;;14.27;68.04
77321;BME280;66382;52.252;8.780;2023-10-09T03:11:04;100787.63;;;14.29;68.44
77321;BME280;66382;52.252;8.780;2023-10-09T03:13:31;100789.31;;;14.30;68.05
77321;BME280;66382;52.252;8.780;2023-10-09T03:15:56;100780.41;;;14.29;68.24
77321;BME280;66382;52.252;8.780;2023-10-09T03:18:22;100777.28;;;14.32;68.61
77321;BME280;66382;52.252;8.780;2023-10-09T03:20:48;100770.84;;;14.33;68.58
77321;BME280;66382;52.252;8.780;2023-10-09T03:23:15;100766.25;;;14.34;68.52
77321;BME280;66382;52.252;8.780;2023-10-09T03:25:40;100775.81;;;14.36;68.71
77321;BME280;66382;52.252;8.780;2023-10-09T03:28:06;100773.75;;;14.38;68.37
77321;BME280;66382;52.252;8.780;2023-10-09T03:30:32;100769.16;;;14.39;68.78
77321;BME280;66382;52.252;8.780;2023-10-09T03:32:57;100767.09;;;14.41;68.37
77321;BME280;66382;52.252;8.780;2023-10-09T03:35:23;100765.03;;;14.43;68.35
77321;BME280;66382;52.252;8.780;2023-10-09T03:37:49;100766.09;;;14.42;68.53
77321;BME280;66382;52.252;8.780;2023-10-09T03:40:16;100757.38;;;14.40;68.41
77321;BME280;66382;52.252;8.780;2023-10-09T03:42:42;100762.56;;;14.41;68.91
77321;BME280;66382;52.252;8.780;2023-10-09T03:45:08;100758.19;;;14.40;68.71
77321;BME280;66382;52.252;8.780;2023-10-09T03:47:34;100762.56;;;14.41;68.10
77321;BME280;66382;52.252;8.780;2023-10-09T03:49:59;100758.19;;;14.40;68.75
77321;BME280;66382;52.252;8.780;2023-10-09T03:52:25;100756.13;;;14.43;68.48
77321;BME280;66382;52.252;8.780;2023-10-09T03:54:51;100749.66;;;14.44;68.83
77321;BME280;66382;52.252;8.780;2023-10-09T03:57:18;100757.56;;;14.45;68.90
77321;BME280;66382;52.252;8.780;2023-10-09T03:59:44;100766.72;;;14.44;68.66
77321;BME280;66382;52.252;8.780;2023-10-09T04:02:09;100755.06;;;14.44;68.51
77321;BME280;66382;52.252;8.780;2023-10-09T04:04:35;100768.34;;;14.45;68.52
77321;BME280;66382;52.252;8.780;2023-10-09T04:07:01;100762.97;;;14.45;69.13
77321;BME280;66382;52.252;8.780;2023-10-09T04:09:26;100757.97;;;14.49;69.35
77321;BME280;66382;52.252;8.780;2023-10-09T04:11:53;100751.75;;;14.48;68.95
77321;BME280;66382;52.252;8.780;2023-10-09T04:14:20;100747.81;;;14.51;69.27
77321;BME280;66382;52.252;8.780;2023-10-09T04:16:46;100744.09;;;14.52;68.78
77321;BME280;66382;52.252;8.780;2023-10-09T04:19:12;100749.28;;;14.53;69.17
77321;BME280;66382;52.252;8.780;2023-10-09T04:21:37;100750.09;;;14.54;69.12
77321;BME280;66382;52.252;8.780;2023-10-09T04:24:04;100750.97;;;14.54;69.34
77321;BME280;66382;52.252;8.780;2023-10-09T04:26:30;100762.56;;;14.55;69.26
77321;BME280;66382;52.252;8.780;2023-10-09T04:28:55;100758.81;;;14.56;69.15
77321;BME280;66382;52.252;8.780;2023-10-09T04:31:22;100766.72;;;14.57;69.05
77321;BME280;66382;52.252;8.780;2023-10-09T04:33:48;100762.97;;;14.58;69.23
77321;BME280;66382;52.252;8.780;2023-10-09T04:36:14;100773.56;;;14.60;69.60
77321;BME280;66382;52.252;8.780;2023-10-09T04:38:39;100780.41;;;14.62;69.32
77321;BME280;66382;52.252;8.780;2023-10-09T04:41:06;100775.84;;;14.63;69.70
77321;BME280;66382;52.252;8.780;2023-10-09T04:43:31;100774.59;;;14.66;69.57
77321;BME280;66382;52.252;8.780;2023-10-09T04:45:58;100780.81;;;14.66;69.85
77321;BME280;66382;52.252;8.780;2023-10-09T04:48:25;100788.72;;;14.68;69.66
77321;BME280;66382;52.252;8.780;2023-10-09T04:50:50;100790.38;;;14.69;69.65
77321;BME280;66382;52.252;8.780;2023-10-09T04:53:16;100781.25;;;14.70;69.63
77321;BME280;66382;52.252;8.780;2023-10-09T04:55:42;100784.78;;;14.70;69.75
77321;BME280;66382;52.252;8.780;2023-10-09T04:58:07;100786.66;;;14.70;69.39
77321;BME280;66382;52.252;8.780;2023-10-09T05:00:33;100776.47;;;14.65;69.38
77321;BME280;66382;52.252;8.780;2023-10-09T05:03:00;100792.66;;;14.72;69.78
77321;BME280;66382;52.252;8.780;2023-10-09T05:05:28;100797.84;;;14.73;69.68
77321;BME280;66382;52.252;8.780;2023-10-09T05:07:54;100794.13;;;14.74;69.58
77321;BME280;66382;52.252;8.780;2023-10-09T05:10:20;100792.25;;;14.75;69.70
77321;BME280;66382;52.252;8.780;2023-10-09T05:12:46;100788.50;;;14.76;69.49
77321;BME280;66382;52.252;8.780;2023-10-09T05:15:11;100789.34;;;14.76;69.57
77321;BME280;66382;52.252;8.780;2023-10-09T05:17:37;100777.09;;;14.74;69.70
77321;BME280;66382;52.252;8.780;2023-10-09T05:20:03;100773.34;;;14.75;70.04
77321;BME280;66382;52.252;8.780;2023-10-09T05:22:30;100775.22;;;14.74;69.92
77321;BME280;66382;52.252;8.780;2023-10-09T05:24:57;100766.31;;;14.74;69.98
77321;BME280;66382;52.252;8.780;2023-10-09T05:27:23;100771.72;;;14.74;70.17
77321;BME280;66382;52.252;8.780;2023-10-09T05:29:49;100779.81;;;14.74;70.08
77321;BME280;66382;52.252;8.780;2023-10-09T05:32:14;100778.94;;;14.73;69.82
77321;BME280;66382;52.252;8.780;2023-10-09T05:34:41;100773.97;;;14.70;69.91
77321;BME280;66382;52.252;8.780;2023-10-09T05:37:07;100784.34;;;14.73;70.06
77321;BME280;66382;52.252;8.780;2023-10-09T05:39:34;100780.81;;;14.73;69.42
77321;BME280;66382;52.252;8.780;2023-10-09T05:41:59;100772.09;;;14.71;69.59
77321;BME280;66382;52.252;8.780;2023-10-09T05:44:25;100794.53;;;14.71;70.16
77321;BME280;66382;52.252;8.780;2023-10-09T05:46:51;100793.69;;;14.71;69.62
77321;BME280;66382;52.252;8.780;2023-10-09T05:49:16;100786.66;;;14.70;70.36
77321;BME280;66382;52.252;8.780;2023-10-09T05:51:42;100789.34;;;14.70;70.55
77321;BME280;66382;52.252;8.780;2023-10-09T05:54:08;100794.53;;;14.71;70.07
77321;BME280;66382;52.252;8.780;2023-10-09T05:56:35;100782.50;;;14.74;70.08
77321;BME280;66382;52.252;8.780;2023-10-09T05:59:00;100776.88;;;14.75;70.51
77321;BME280;66382;52.252;8.780;2023-10-09T06:01:26;100779.16;;;14.78;70.50
77321;BME280;66382;52.252;8.780;2023-10-09T06:03:52;100801.38;;;14.80;70.72
77321;BME280;66382;52.252;8.780;2023-10-09T06:06:18;100810.09;;;14.82;70.73
77321;BME280;66382;52.252;8.780;2023-10-09T06:08:44;100810.72;;;14.84;70.20
77321;BME280;66382;52.252;8.780;2023-10-09T06:11:11;100814.88;;;14.87;70.55
77321;BME280;66382;52.252;8.780;2023-10-09T06:13:38;100820.06;;;14.89;70.53
77321;BME280;66382;52.252;8.780;2023-10-09T06:16:04;100812.78;;;14.89;70.70
77321;BME280;66382;52.252;8.780;2023-10-09T06:18:30;100814.88;;;14.94;70.21
77321;BME280;66382;52.252;8.780;2023-10-09T06:20:56;100822.75;;;14.95;70.60
77321;BME280;66382;52.252;8.780;2023-10-09T06:23:21;100825.25;;;14.97;70.82
77321;BME280;66382;52.252;8.780;2023-10-09T06:25:47;100829.41;;;14.99;70.37
77321;BME280;66382;52.252;8.780;2023-10-09T06:28:13;100818.41;;;15.01;70.44
77321;BME280;66382;52.252;8.780;2023-10-09T06:30:40;100834.59;;;15.01;70.55
77321;BME280;66382;52.252;8.780;2023-10-09T06:33:05;100830.66;;;15.03;70.30
77321;BME280;66382;52.252;8.780;2023-10-09T06:35:34;100830.22;;;15.00;70.47
77321;BME280;66382;52.252;8.780;2023-10-09T06:38:00;100828.13;;;15.02;70.46
77321;BME280;66382;52.252;8.780;2023-10-09T06:40:25;100830.03;;;15.01;70.55
77321;BME280;66382;52.252;8.780;2023-10-09T06:42:51;100822.94;;;15.00;70.67
77321;BME280;66382;52.252;8.780;2023-10-09T06:45:17;100826.28;;;15.02;70.87
77321;BME280;66382;52.252;8.780;2023-10-09T06:47:47;100826.06;;;15.04;70.17
77321;BME280;66382;52.252;8.780;2023-10-09T06:50:13;100822.31;;;15.05;70.59
77321;BME280;66382;52.252;8.780;2023-10-09T06:52:38;100828.53;;;15.05;71.18
77321;BME280;66382;52.252;8.780;2023-10-09T06:55:05;100820.66;;;15.04;70.76
77321;BME280;66382;52.252;8.780;2023-10-09T06:57:30;100824.38;;;15.10;70.77
77321;BME280;66382;52.252;8.780;2023-10-09T06:59:56;100827.91;;;15.10;71.19
77321;BME280;66382;52.252;8.780;2023-10-09T07:02:22;100826.88;;;15.11;70.85
77321;BME280;66382;52.252;8.780;2023-10-09T07:04:49;100824.78;;;15.13;71.27
77321;BME280;66382;52.252;8.780;2023-10-09T07:07:15;100828.09;;;15.15;71.60
77321;BME280;66382;52.252;8.780;2023-10-09T07:09:40;100832.25;;;15.18;71.49
77321;BME280;66382;52.252;8.780;2023-10-09T07:12:06;100841.00;;;15.20;71.39
77321;BME280;66382;52.252;8.780;2023-10-09T07:14:32;100827.47;;;15.20;71.38
77321;BME280;66382;52.252;8.780;2023-10-09T07:16:58;100824.34;;;15.23;71.16
77321;BME280;66382;52.252;8.780;2023-10-09T07:19:24;100816.88;;;15.25;70.90
77321;BME280;66382;52.252;8.780;2023-10-09T07:21:51;100829.34;;;15.26;70.91
77321;BME280;66382;52.252;8.780;2023-10-09T07:24:16;100822.91;;;15.27;71.51
77321;BME280;66382;52.252;8.780;2023-10-09T07:26:42;100831.63;;;15.29;71.31
77321;BME280;66382;52.252;8.780;2023-10-09T07:29:08;100828.72;;;15.31;71.49
77321;BME280;66382;52.252;8.780;2023-10-09T07:31:34;100818.75;;;15.31;71.77
77321;BME280;66382;52.252;8.780;2023-10-09T07:33:59;100810.63;;;15.31;71.33
77321;BME280;66382;52.252;8.780;2023-10-09T07:36:25;100814.78;;;15.34;71.38
77321;BME280;66382;52.252;8.780;2023-10-09T07:38:52;100807.31;;;15.36;71.60
77321;BME280;66382;52.252;8.780;2023-10-09T07:41:18;100829.50;;;15.38;71.34
77321;BME280;66382;52.252;8.780;2023-10-09T07:43:44;100827.22;;;15.41;72.05
77321;BME280;66382;52.252;8.780;2023-10-09T07:46:11;100824.09;;;15.44;71.49
77321;BME280;66382;52.252;8.780;2023-10-09T07:48:37;100818.69;;;15.44;72.28
77321;BME280;66382;52.252;8.780;2023-10-09T07:51:02;100814.97;;;15.45;72.07
77321;BME280;66382;52.252;8.780;2023-10-09T07:53:28;100820.97;;;15.47;72.02
77321;BME280;66382;52.252;8.780;2023-10-09T07:55:55;100827.41;;;15.46;72.10
77321;BME280;66382;52.252;8.780;2023-10-09T07:58:21;100816.81;;;15.52;71.45
77321;BME280;66382;52.252;8.780;2023-10-09T08:00:47;100815.53;;;15.54;72.20
77321;BME280;66382;52.252;8.780;2023-10-09T08:03:13;100810.97;;;15.55;71.88
77321;BME280;66382;52.252;8.780;2023-10-09T08:05:42;100801.81;;;15.56;71.56
77321;BME280;66382;52.252;8.780;2023-10-09T08:08:08;100813.22;;;15.58;71.65
77321;BME280;66382;52.252;8.780;2023-10-09T08:10:33;100813.84;;;15.60;71.55
77321;BME280;66382;52.252;8.780;2023-10-09T08:13:01;100812.81;;;15.61;71.49
77321;BME280;66382;52.252;8.780;2023-10-09T08:15:27;100808.25;;;15.61;71.99
77321;BME280;66382;52.252;8.780;2023-10-09T08:17:54;100804.47;;;15.62;71.78
77321;BME280;66382;52.252;8.780;2023-10-09T08:20:21;100810.75;;;15.63;71.78
77321;BME280;66382;52.252;8.780;2023-10-09T08:22:47;100806.16;;;15.63;72.61
77321;BME280;66382;52.252;8.780;2023-10-09T08:25:13;100806.97;;;15.64;71.53
77321;BME280;66382;52.252;8.780;2023-10-09T08:27:38;100819.25;;;15.66;71.85
77321;BME280;66382;52.252;8.780;2023-10-09T08:30:06;100817.97;;;15.69;72.05
77321;BME280;66382;52.252;8.780;2023-10-09T08:32:32;100818.44;;;15.73;72.46
77321;BME280;66382;52.252;8.780;2023-10-09T08:34:58;100818.81;;;15.76;71.98
77321;BME280;66382;52.252;8.780;2023-10-09T08:37:23;100808.63;;;15.78;72.13
77321;BME280;66382;52.252;8.780;2023-10-09T08:39:49;100811.31;;;15.78;72.39
77321;BME280;66382;52.252;8.780;2023-10-09T08:42:15;100804.03;;;15.79;72.37
77321;BME280;66382;52.252;8.780;2023-10-09T08:44:41;100803.84;;;15.80;72.28
77321;BME280;66382;52.252;8.780;2023-10-09T08:47:09;100795.94;;;15.79;72.22
77321;BME280;66382;52.252;8.780;2023-10-09T08:49:35;100790.69;;;15.84;72.15
77321;BME280;66382;52.252;8.780;2023-10-09T08:52:01;100795.03;;;15.85;72.50
77321;BME280;66382;52.252;8.780;2023-10-09T08:54:27;100789.44;;;15.86;72.18
77321;BME280;66382;52.252;8.780;2023-10-09T08:56:55;100796.72;;;15.86;72.47
77321;BME280;66382;52.252;8.780;2023-10-09T08:59:21;100804.84;;;15.86;72.38
77321;BME280;66382;52.252;8.780;2023-10-09T09:01:48;100804.63;;;15.87;73.07
77321;BME280;66382;52.252;8.780;2023-10-09T09:04:36;100797.09;;;15.89;72.08
77321;BME280;66382;52.252;8.780;2023-10-09T09:07:01;100772.78;;;15.89;72.27
77321;BME280;66382;52.252;8.780;2023-10-09T09:09:27;100787.97;;;15.90;72.72
77321;BME280;66382;52.252;8.780;2023-10-09T09:11:53;100794.00;;;15.93;73.01
77321;BME280;66382;52.252;8.780;2023-10-09T09:14:18;100812.06;;;15.92;72.86
77321;BME280;66382;52.252;8.780;2023-10-09T09:16:45;100830.59;;;15.95;72.92
77321;BME280;66382;52.252;8.780;2023-10-09T09:19:10;100834.13;;;15.96;72.41
77321;BME280;66382;52.252;8.780;2023-10-09T09:21:39;100836.00;;;15.95;72.80
77321;BME280;66382;52.252;8.780;2023-10-09T09:24:08;100835.13;;;15.95;72.56
77321;BME280;66382;52.252;8.780;2023-10-09T09:26:35;100837.03;;;15.94;73.01
77321;BME280;66382;52.252;8.780;2023-10-09T09:29:01;100827.88;;;15.95;72.87
77321;BME280;66382;52.252;8.780;2023-10-09T09:31:27;100818.72;;;15.96;72.69
77321;BME280;66382;52.252;8.780;2023-10-09T09:33:56;100816.84;;;15.97;72.55
77321;BME280;66382;52.252;8.780;2023-10-09T09:36:22;100807.69;;;15.98;72.97
77321;BME280;66382;52.252;8.780;2023-10-09T09:38:49;100808.28;;;16.00;72.73
77321;BME280;66382;52.252;8.780;2023-10-09T09:41:15;100813.69;;;16.00;73.19
77321;BME280;66382;52.252;8.780;2023-10-09T09:43:41;100806.44;;;16.00;72.57
77321;BME280;66382;52.252;8.780;2023-10-09T09:46:08;100796.22;;;16.02;73.27
77321;BME280;66382;52.252;8.780;2023-10-09T09:48:39;100784.16;;;16.05;72.29
77321;BME280;66382;52.252;8.780;2023-10-09T09:51:05;100782.25;;;16.05;72.85
77321;BME280;66382;52.252;8.780;2023-10-09T09:53:30;100782.03;;;16.07;72.58
77321;BME280;66382;52.252;8.780;2023-10-09T09:55:57;100780.75;;;16.09;72.97
77321;BME280;66382;52.252;8.780;2023-10-09T09:58:24;100772.44;;;16.11;72.65
77321;BME280;66382;52.252;8.780;2023-10-09T10:00:52;100777.41;;;16.14;73.32
77321;BME280;66382;52.252;8.780;2023-10-09T10:03:22;100774.06;;;16.19;73.10
77321;BME280;66382;52.252;8.780;2023-10-09T10:05:50;100766.56;;;16.21;73.16
77321;BME280;66382;52.252;8.780;2023-10-09T10:08:18;100776.94;;;16.24;73.33
77321;BME280;66382;52.252;8.780;2023-10-09T10:10:45;100778.34;;;16.26;73.53
77321;BME280;66382;52.252;8.780;2023-10-09T10:13:13;100771.06;;;16.27;73.31
77321;BME280;66382;52.252;8.780;2023-10-09T10:15:58;100784.78;;;16.32;72.41
77321;BME280;66382;52.252;8.780;2023-10-09T10:18:24;100783.53;;;16.34;73.46
77321;BME280;66382;52.252;8.780;2023-10-09T10:21:11;100786.00;;;16.36;73.12
77321;BME280;66382;52.252;8.780;2023-10-09T10:23:37;100784.34;;;16.35;73.50
77321;BME280;66382;52.252;8.780;2023-10-09T10:26:16;100776.22;;;16.35;72.84
77321;BME280;66382;52.252;8.780;2023-10-09T10:28:43;100767.88;;;16.37;73.31
77321;BME280;66382;52.252;8.780;2023-10-09T10:31:09;100759.34;;;16.40;73.38
77321;BME280;66382;52.252;8.780;2023-10-09T10:34:05;100777.38;;;16.46;72.97
77321;BME280;66382;52.252;8.780;2023-10-09T10:36:31;100780.88;;;16.53;73.49
77321;BME280;66382;52.252;8.780;2023-10-09T10:39:00;100786.44;;;16.58;73.34
77321;BME280;66382;52.252;8.780;2023-10-09T10:41:26;100794.97;;;16.62;73.71
77321;BME280;66382;52.252;8.780;2023-10-09T10:43:53;100825.78;;;16.61;73.10
77321;BME280;66382;52.252;8.780;2023-10-09T10:46:19;100823.28;;;16.59;73.23
77321;BME280;66382;52.252;8.780;2023-10-09T10:48:45;100822.69;;;16.57;73.36
77321;BME280;66382;52.252;8.780;2023-10-09T10:51:11;100818.75;;;16.53;73.46
77321;BME280;66382;52.252;8.780;2023-10-09T10:53:36;100818.16;;;16.51;73.17
77321;BME280;66382;52.252;8.780;2023-10-09T10:56:02;100812.97;;;16.49;73.63
77321;BME280;66382;52.252;8.780;2023-10-09T10:58:28;100803.84;;;16.44;73.41
77321;BME280;66382;52.252;8.780;2023-10-09T11:00:55;100817.38;;;16.44;73.16
77321;BME280;66382;52.252;8.780;2023-10-09T11:03:21;100821.94;;;16.43;73.25
77321;BME280;66382;52.252;8.780;2023-10-09T11:05:47;100840.28;;;16.41;73.35
77321;BME280;66382;52.252;8.780;2023-10-09T11:08:13;100825.31;;;16.39;73.12
77321;BME280;66382;52.252;8.780;2023-10-09T11:10:38;100832.00;;;16.36;73.50
77321;BME280;66382;52.252;8.780;2023-10-09T11:13:04;100828.72;;;16.27;73.22
77321;BME280;66382;52.252;8.780;2023-10-09T11:15:31;100836.78;;;16.34;73.56
77321;BME280;66382;52.252;8.780;2023-10-09T11:17:59;100824.97;;;16.28;73.55
77321;BME280;66382;52.252;8.780;2023-10-09T11:20:25;100811.88;;;16.25;73.40
77321;BME280;66382;52.252;8.780;2023-10-09T11:22:52;100829.72;;;16.33;73.10
77321;BME280;66382;52.252;8.780;2023-10-09T11:25:18;100822.44;;;16.33;73.63
77321;BME280;66382;52.252;8.780;2023-10-09T11:27:43;100820.56;;;16.34;73.49
77321;BME280;66382;52.252;8.780;2023-10-09T11:30:10;100822.22;;;16.35;73.89
77321;BME280;66382;52.252;8.780;2023-10-09T11:32:36;100815.56;;;16.38;73.76
77321;BME280;66382;52.252;8.780;2023-10-09T11:35:14;100813.50;;;16.33;73.30
77321;BME280;66382;52.252;8.780;2023-10-09T11:37:40;100813.47;;;16.40;73.85
77321;BME280;66382;52.252;8.780;2023-10-09T11:40:06;100805.34;;;16.40;74.13
77321;BME280;66382;52.252;8.780;2023-10-09T11:42:32;100808.63;;;16.42;74.07
77321;BME280;66382;52.252;8.780;2023-10-09T11:44:59;100801.38;;;16.42;73.99
77321;BME280;66382;52.252;8.780;2023-10-09T11:47:34;100793.00;;;16.44;73.46
77321;BME280;66382;52.252;8.780;2023-10-09T11:50:01;100794.44;;;16.46;73.98
77321;BME280;66382;52.252;8.780;2023-10-09T11:52:28;100791.31;;;16.49;73.78
77321;BME280;66382;52.252;8.780;2023-10-09T11:54:54;100803.59;;;16.52;74.13
77321;BME280;66382;52.252;8.780;2023-10-09T11:57:19;100808.75;;;16.53;73.84
77321;BME280;66382;52.252;8.780;2023-10-09T11:59:45;100812.06;;;16.55;73.99
77321;BME280;66382;52.252;8.780;2023-10-09T12:02:11;100797.72;;;16.55;74.37
77321;BME280;66382;52.252;8.780;2023-10-09T12:04:36;100806.47;;;16.57;73.95
77321;BME280;66382;52.252;8.780;2023-10-09T12:07:02;100811.41;;;16.60;74.19
77321;BME280;66382;52.252;8.780;2023-10-09T12:09:29;100816.63;;;16.62;74.21
77321;BME280;66382;52.252;8.780;2023-10-09T12:11:55;100802.84;;;16.63;73.99
77321;BME280;66382;52.252;8.780;2023-10-09T12:14:20;100796.16;;;16.66;74.46
77321;BME280;66382;52.252;8.780;2023-10-09T12:16:46;100808.44;;;16.68;74.55
77321;BME280;66382;52.252;8.780;2023-10-09T12:19:12;100811.75;;;16.70;74.06
77321;BME280;66382;52.252;8.780;2023-10-09T12:21:38;100808.59;;;16.73;74.38
77321;BME280;66382;52.252;8.780;2023-10-09T12:24:04;100815.69;;;16.74;74.02
77321;BME280;66382;52.252;8.780;2023-10-09T12:26:31;100815.69;;;16.74;74.33
77321;BME280;66382;52.252;8.780;2023-10-09T12:28:56;100818.16;;;16.76;74.41
77321;BME280;66382;52.252;8.780;2023-10-09T12:31:22;100804.25;;;16.72;74.26
77321;BME280;66382;52.252;8.780;2023-10-09T12:33:48;100810.88;;;16.76;74.27
77321;BME280;66382;52.252;8.780;2023-10-09T12:36:14;100823.19;;;16.79;74.35
77321;BME280;66382;52.252;8.780;2023-10-09T12:38:40;100813.16;;;16.80;74.18
77321;BME280;66382;52.252;8.780;2023-10-09T12:41:06;100823.75;;;16.81;74.70
77321;BME280;66382;52.252;8.780;2023-10-09T12:43:34;100817.91;;;16.84;74.50
77321;BME280;66382;52.252;8.780;2023-10-09T12:46:04;100812.25;;;16.86;74.48